createdAt,value
2022-08-12T00:04:01.712Z,29.82
2022-08-12T00:09:26.241Z,29.83
2022-08-12T00:14:46.966Z,29.79
2022-08-12T00:20:07.325Z,30.17
2022-08-12T00:25:55.817Z,30.16
2022-08-12T00:31:09.542Z,30.00
2022-08-12T00:36:35.432Z,30.14
2022-08-12T00:41:57.100Z,29.99
2022-08-12T00:47:01.165Z,30.01
2022-08-12T00:52:11.576Z,30.08
2022-08-12T00:57:21.819Z,30.15
2022-08-12T01:02:27.270Z,30.12
2022-08-12T01:07:48.561Z,30.35
2022-08-12T01:12:51.369Z,30.37
2022-08-12T01:17:53.687Z,30.49
2022-08-12T01:23:23.555Z,30.32
2022-08-12T01:28:28.660Z,30.40
2022-08-12T01:33:37.733Z,30.36
2022-08-12T01:38:44.265Z,30.43
2022-08-12T01:43:47.052Z,30.35
2022-08-12T01:48:55.478Z,30.66
2022-08-12T01:54:12.847Z,30.60
2022-08-12T01:59:37.368Z,30.40
2022-08-12T02:05:34.553Z,30.71
2022-08-12T02:11:24.097Z,30.76
2022-08-12T02:16:58.461Z,30.78
2022-08-12T02:22:29.382Z,30.94
2022-08-12T02:27:37.853Z,30.84
2022-08-12T02:32:42.453Z,30.72
2022-08-12T02:37:45.639Z,30.65
2022-08-12T02:43:01.432Z,30.74
2022-08-12T02:48:08.395Z,30.62
2022-08-12T02:53:11.841Z,30.60
2022-08-12T02:58:15.021Z,30.48
2022-08-12T03:03:19.832Z,30.71
2022-08-12T03:08:32.718Z,30.67
2022-08-12T03:13:40.456Z,30.43
2022-08-12T03:18:46.200Z,30.49
2022-08-12T03:23:48.560Z,30.74
2022-08-12T03:28:51.905Z,30.67
2022-08-12T03:34:01.660Z,30.58
2022-08-12T03:39:35.364Z,30.38
2022-08-12T03:45:12.046Z,30.43
2022-08-12T03:50:32.913Z,30.53
2022-08-12T03:55:54.276Z,30.47
2022-08-12T04:00:56.403Z,30.53
2022-08-12T04:05:58.410Z,30.45
2022-08-12T04:11:18.901Z,30.62
2022-08-12T04:16:21.572Z,30.53
2022-08-12T04:21:25.269Z,30.50
2022-08-12T04:26:29.436Z,30.38
2022-08-12T04:31:50.182Z,30.55
2022-08-12T04:36:54.193Z,30.41
2022-08-12T04:41:58.253Z,30.40
2022-08-12T04:47:00.638Z,30.43
2022-08-12T04:52:03.161Z,30.32
2022-08-12T04:57:06.165Z,30.10
2022-08-12T05:02:09.591Z,30.05
2022-08-12T05:07:19.718Z,30.23
2022-08-12T05:12:21.719Z,30.16
2022-08-12T05:17:28.125Z,29.99
2022-08-12T05:22:30.471Z,30.09
2022-08-12T05:27:58.401Z,30.43
2022-08-12T05:33:06.085Z,30.25
2022-08-12T05:38:27.864Z,30.43
2022-08-12T05:43:30.062Z,30.44
2022-08-12T05:48:32.848Z,30.51
2022-08-12T05:53:34.921Z,30.52
2022-08-12T05:58:36.666Z,30.73
2022-08-12T06:03:38.509Z,30.84
2022-08-12T06:08:47.645Z,30.66
2022-08-12T06:13:54.091Z,30.70
2022-08-12T06:18:56.560Z,30.65
2022-08-12T06:23:58.621Z,30.73
2022-08-12T06:29:00.974Z,30.75
2022-08-12T06:35:25.895Z,30.96
2022-08-12T06:39:25.207Z,31.01
2022-08-12T06:44:27.297Z,30.69
2022-08-12T06:49:33.603Z,30.58
2022-08-12T06:54:35.964Z,30.38
2022-08-12T06:59:41.339Z,30.09
2022-08-12T07:04:43.729Z,30.74
2022-08-12T07:10:00.008Z,31.31
2022-08-12T07:15:08.453Z,31.45
2022-08-12T07:20:29.872Z,30.63
2022-08-12T07:25:37.513Z,30.13
2022-08-12T07:30:45.441Z,30.65
2022-08-12T07:35:48.506Z,30.65
2022-08-12T07:40:56.720Z,30.95
2022-08-12T07:45:58.844Z,30.71
2022-08-12T07:51:00.957Z,30.77
2022-08-12T07:56:05.307Z,30.51
2022-08-12T08:01:13.040Z,30.28
2022-08-12T08:06:18.662Z,30.38
2022-08-12T08:11:41.452Z,30.27
2022-08-12T08:16:43.715Z,30.45
2022-08-12T08:21:46.085Z,30.31
2022-08-12T08:26:50.762Z,30.66
2022-08-12T08:32:00.371Z,30.11
2022-08-12T08:37:07.572Z,30.33
2022-08-12T08:42:31.499Z,30.23
2022-08-12T08:47:44.121Z,29.90
2022-08-12T08:52:48.131Z,30.07
2022-08-12T08:57:54.758Z,29.95
2022-08-12T09:02:59.361Z,29.85
2022-08-12T09:14:10.062Z,29.71
2022-08-12T09:18:52.268Z,29.25
2022-08-12T09:30:09.953Z,29.82
2022-08-12T09:34:44.082Z,29.43
2022-08-12T09:40:03.304Z,29.59
2022-08-12T09:46:05.379Z,29.70
2022-08-12T09:50:55.295Z,29.46
2022-08-12T09:56:57.286Z,29.47
2022-08-12T10:01:23.360Z,29.46
2022-08-12T10:06:36.093Z,29.23
2022-08-12T10:12:10.633Z,29.34
2022-08-12T10:17:14.951Z,29.20
2022-08-12T10:22:37.215Z,29.52
2022-08-12T10:28:04.514Z,29.59
2022-08-12T10:33:18.695Z,29.67
2022-08-12T10:38:35.855Z,29.80
2022-08-12T10:43:55.658Z,29.92
2022-08-12T10:49:05.385Z,30.20
2022-08-12T10:54:26.989Z,30.41
2022-08-12T11:00:31.448Z,30.76
2022-08-12T11:04:52.200Z,30.71
2022-08-12T11:10:00.444Z,30.67
2022-08-12T11:15:14.825Z,30.49
2022-08-12T11:20:29.014Z,31.43
2022-08-12T11:25:53.728Z,31.05
2022-08-12T11:30:55.215Z,30.67
2022-08-12T11:36:14.801Z,31.64
2022-08-12T11:41:17.151Z,31.34
2022-08-12T11:46:30.600Z,31.07
2022-08-12T11:51:36.498Z,30.65
2022-08-12T11:56:44.826Z,30.79
2022-08-12T12:02:05.018Z,30.71
2022-08-12T12:07:11.548Z,30.57
2022-08-12T12:12:13.737Z,31.17
2022-08-12T12:17:15.688Z,30.89
2022-08-12T12:22:23.743Z,30.60
2022-08-12T12:28:04.147Z,30.80
2022-08-12T12:33:09.012Z,30.67
2022-08-12T12:38:13.056Z,30.57
2022-08-12T12:43:16.353Z,30.54
2022-08-12T12:48:31.110Z,30.47
2022-08-12T12:54:07.771Z,30.57
2022-08-12T12:58:55.141Z,30.80
2022-08-12T13:04:02.273Z,30.54
2022-08-12T13:09:05.096Z,30.55
2022-08-12T13:14:12.911Z,30.50
2022-08-12T13:19:43.467Z,30.62
2022-08-12T13:24:55.702Z,30.74
2022-08-12T13:30:03.653Z,30.59
2022-08-12T13:35:19.355Z,30.60
2022-08-12T13:40:33.977Z,30.16
2022-08-12T13:45:36.665Z,30.58
2022-08-12T13:50:40.944Z,30.50
2022-08-12T13:55:45.682Z,30.87
2022-08-12T14:00:52.249Z,30.40
2022-08-12T14:05:58.358Z,30.65
2022-08-12T14:11:02.183Z,30.47
2022-08-12T14:16:04.793Z,30.30
2022-08-12T14:21:10.287Z,30.51
2022-08-12T14:26:26.374Z,30.39
2022-08-12T14:31:31.750Z,30.27
2022-08-12T14:36:34.294Z,29.88
2022-08-12T14:41:57.196Z,29.93
2022-08-12T14:46:59.459Z,27.73
2022-08-12T14:52:48.458Z,26.04
2022-08-12T14:57:24.378Z,26.62
2022-08-12T15:02:38.360Z,23.45
2022-08-12T15:07:49.298Z,22.43
2022-08-12T15:12:55.881Z,21.84
2022-08-12T15:18:02.137Z,23.14
2022-08-12T15:23:17.998Z,23.40
2022-08-12T15:28:32.371Z,23.75
2022-08-12T15:33:37.852Z,23.35
2022-08-12T15:38:47.408Z,21.21
2022-08-12T15:44:16.000Z,21.69
2022-08-12T15:49:16.705Z,23.18
2022-08-12T15:54:34.312Z,22.87
2022-08-12T16:00:00.093Z,22.62
2022-08-12T16:05:00.238Z,24.27
2022-08-12T16:10:07.026Z,23.93
2022-08-12T16:15:13.345Z,23.82
2022-08-12T16:20:33.020Z,23.83
2022-08-12T16:26:03.165Z,23.72
2022-08-12T16:30:58.192Z,23.64
2022-08-12T16:36:00.019Z,24.10
2022-08-12T16:41:03.894Z,23.90
2022-08-12T16:46:31.445Z,23.57
2022-08-12T16:51:40.235Z,23.80
2022-08-12T16:56:57.688Z,23.46
2022-08-12T17:02:00.791Z,23.41
2022-08-12T17:07:02.705Z,23.52
2022-08-12T17:12:05.646Z,23.32
2022-08-12T17:17:18.255Z,23.98
2022-08-12T17:22:31.002Z,23.69
2022-08-12T17:27:34.196Z,24.09
2022-08-12T17:32:39.823Z,24.15
2022-08-12T17:37:43.366Z,23.59
2022-08-12T17:42:48.119Z,23.94
2022-08-12T17:48:02.305Z,24.08
2022-08-12T17:53:10.712Z,23.33
2022-08-12T17:58:13.960Z,23.73
2022-08-12T18:04:04.448Z,23.52
2022-08-12T18:08:54.253Z,23.81
2022-08-12T18:13:56.989Z,23.84
2022-08-12T18:19:02.721Z,23.73
2022-08-12T18:24:22.119Z,23.88
2022-08-12T18:29:41.914Z,22.86
2022-08-12T18:34:48.211Z,22.76
2022-08-12T18:40:17.876Z,22.56
2022-08-12T18:45:21.782Z,22.80
2022-08-12T18:50:24.743Z,22.52
2022-08-12T18:55:27.297Z,22.47
2022-08-12T19:00:40.877Z,22.66
2022-08-12T19:05:54.280Z,22.67
2022-08-12T19:11:20.883Z,22.58
2022-08-12T19:16:23.170Z,22.68
2022-08-12T19:21:25.458Z,22.55
2022-08-12T19:26:28.054Z,22.48
2022-08-12T19:31:55.848Z,23.80
2022-08-12T19:37:04.378Z,22.79
2022-08-12T19:42:06.733Z,23.78
2022-08-12T19:47:12.084Z,24.56
2022-08-12T19:52:21.250Z,23.80
2022-08-12T19:57:23.973Z,23.56
2022-08-12T20:02:49.206Z,23.54
2022-08-12T20:07:56.914Z,23.80
2022-08-12T20:13:18.465Z,23.47
2022-08-12T20:18:53.123Z,23.66
2022-08-12T20:23:59.697Z,24.25
2022-08-12T20:29:04.954Z,23.89
2022-08-12T20:34:07.997Z,24.34
2022-08-12T20:39:37.185Z,27.24
2022-08-12T20:44:39.576Z,26.86
2022-08-12T20:49:44.048Z,26.42
2022-08-12T20:54:52.868Z,26.19
2022-08-12T20:59:54.863Z,26.02
2022-08-12T21:05:19.744Z,27.41
2022-08-12T21:10:26.443Z,26.50
2022-08-12T21:15:30.493Z,26.07
2022-08-12T21:20:53.233Z,25.67
2022-08-12T21:25:56.905Z,25.94
2022-08-12T21:32:35.095Z,25.82
2022-08-12T21:36:34.920Z,25.48
2022-08-12T21:41:38.298Z,28.05
2022-08-12T21:46:44.720Z,28.75
2022-08-12T21:51:56.714Z,28.67
2022-08-12T21:56:59.232Z,28.02
2022-08-12T22:02:01.053Z,27.99
2022-08-12T22:07:02.926Z,27.46
2022-08-12T22:12:23.770Z,27.08
2022-08-12T22:17:49.820Z,26.78
2022-08-12T22:22:56.688Z,26.69
2022-08-12T22:28:17.330Z,26.72
2022-08-12T22:33:26.418Z,26.75
2022-08-12T22:38:32.141Z,26.50
2022-08-12T22:44:00.267Z,26.03
2022-08-12T22:49:03.585Z,26.05
2022-08-12T22:54:10.104Z,25.80
2022-08-12T22:59:51.066Z,25.90
2022-08-12T23:04:53.118Z,25.85
2022-08-12T23:09:57.705Z,25.68
2022-08-12T23:14:59.533Z,25.84
2022-08-12T23:20:01.925Z,25.64
2022-08-12T23:25:04.110Z,25.63
2022-08-12T23:30:19.269Z,25.56
2022-08-12T23:35:45.375Z,25.54
2022-08-12T23:40:50.197Z,25.62
2022-08-12T23:46:01.043Z,25.58
2022-08-12T23:51:22.138Z,25.51
2022-08-12T23:56:26.065Z,25.69
